createdAt,value
2023-05-21T00:00:32.604Z,213.46
2023-05-21T00:01:32.534Z,228.50
2023-05-21T00:02:32.582Z,230.51
2023-05-21T00:03:32.632Z,235.89
2023-05-21T00:04:32.521Z,239.60
2023-05-21T00:05:32.551Z,247.20
2023-05-21T00:06:33.051Z,251.81
2023-05-21T00:07:32.525Z,250.29
2023-05-21T00:08:32.493Z,250.29
2023-05-21T00:09:32.491Z,250.68
2023-05-21T00:10:32.495Z,254.41
2023-05-21T00:11:32.450Z,250.90
2023-05-21T00:12:32.524Z,248.95
2023-05-21T00:13:32.482Z,250.00
2023-05-21T00:14:32.491Z,250.00
2023-05-21T00:15:32.447Z,247.37
2023-05-21T00:16:32.501Z,236.99
2023-05-21T00:17:32.407Z,213.67
2023-05-21T00:18:32.582Z,195.21
2023-05-21T00:19:32.596Z,185.73
2023-05-21T00:20:32.615Z,188.39
2023-05-21T00:21:32.570Z,192.66
2023-05-21T00:22:32.575Z,199.02
2023-05-21T00:23:32.668Z,207.68
2023-05-21T00:24:32.613Z,214.07
2023-05-21T00:25:32.697Z,219.09
2023-05-21T00:26:32.714Z,224.11
2023-05-21T00:27:33.542Z,237.18
2023-05-21T00:28:32.797Z,245.33
2023-05-21T00:29:32.851Z,249.52
2023-05-21T00:30:33.068Z,250.97
2023-05-21T00:31:32.902Z,261.13
2023-05-21T00:32:32.913Z,262.95
2023-05-21T00:33:33.541Z,265.06
2023-05-21T00:34:32.997Z,254.91
2023-05-21T00:35:33.073Z,249.39
2023-05-21T00:36:33.090Z,250.00
2023-05-21T00:37:33.200Z,250.00
2023-05-21T00:38:33.192Z,250.00
2023-05-21T00:39:33.353Z,250.00
2023-05-21T00:40:33.320Z,250.00
2023-05-21T00:41:33.376Z,250.00
2023-05-21T00:42:33.424Z,248.40
2023-05-21T00:43:33.504Z,246.53
2023-05-21T00:44:33.552Z,246.30
2023-05-21T00:45:33.677Z,243.91
2023-05-21T00:46:33.687Z,244.04
2023-05-21T00:47:33.695Z,244.21
2023-05-21T00:48:33.802Z,239.78
2023-05-21T00:49:33.803Z,241.46
2023-05-21T00:50:33.895Z,242.25
2023-05-21T00:51:33.926Z,242.38
2023-05-21T00:52:33.967Z,234.64
2023-05-21T00:53:34.061Z,235.34
2023-05-21T00:54:34.124Z,241.14
2023-05-21T00:55:34.312Z,246.81
2023-05-21T00:56:34.301Z,250.00
2023-05-21T00:57:34.291Z,250.09
2023-05-21T00:58:34.419Z,250.00
2023-05-21T00:59:35.343Z,250.00
2023-05-21T01:00:34.373Z,249.13
2023-05-21T01:01:34.448Z,250.67
2023-05-21T01:02:34.408Z,253.38
2023-05-21T01:03:34.362Z,255.48
2023-05-21T01:04:34.302Z,246.05
2023-05-21T01:05:34.514Z,244.14
2023-05-21T01:06:35.305Z,244.19
2023-05-21T01:07:34.341Z,245.04
2023-05-21T01:08:34.322Z,246.59
2023-05-21T01:09:34.266Z,252.18
2023-05-21T01:10:34.306Z,255.65
2023-05-21T01:11:34.272Z,251.10
2023-05-21T01:12:34.274Z,250.00
2023-05-21T01:13:34.292Z,250.02
2023-05-21T01:14:34.966Z,249.69
2023-05-21T01:15:34.397Z,249.97
2023-05-21T01:16:34.307Z,249.85
2023-05-21T01:17:34.493Z,249.57
2023-05-21T01:18:34.281Z,246.44
2023-05-21T01:19:34.293Z,240.94
2023-05-21T01:20:34.557Z,236.78
2023-05-21T01:21:34.212Z,235.97
2023-05-21T01:22:34.181Z,234.02
2023-05-21T01:23:34.241Z,231.34
2023-05-21T01:24:34.238Z,232.10
2023-05-21T01:25:34.542Z,234.79
2023-05-21T01:26:34.242Z,236.03
2023-05-21T01:27:35.023Z,235.60
2023-05-21T01:28:34.296Z,235.35
2023-05-21T01:29:34.292Z,235.32
2023-05-21T01:30:34.310Z,237.38
2023-05-21T01:31:34.338Z,238.24
2023-05-21T01:32:34.429Z,239.16
2023-05-21T01:33:34.422Z,236.82
2023-05-21T01:34:34.446Z,233.23
2023-05-21T01:35:34.530Z,231.02
2023-05-21T01:36:34.414Z,230.61
2023-05-21T01:37:34.417Z,229.02
2023-05-21T01:38:35.055Z,234.40
2023-05-21T01:39:34.488Z,242.11
2023-05-21T01:40:34.581Z,244.24
2023-05-21T01:41:34.539Z,241.10
2023-05-21T01:42:34.544Z,237.29
2023-05-21T01:43:34.561Z,233.25
2023-05-21T01:44:34.604Z,228.45
2023-05-21T01:45:34.726Z,225.64
2023-05-21T01:46:34.801Z,224.56
2023-05-21T01:47:34.714Z,224.45
2023-05-21T01:48:34.696Z,222.55
2023-05-21T01:49:34.712Z,220.95
2023-05-21T01:50:34.756Z,222.83
2023-05-21T01:51:34.767Z,223.71
2023-05-21T01:52:34.766Z,221.85
2023-05-21T01:53:34.796Z,217.91
2023-05-21T01:54:34.815Z,211.80
2023-05-21T01:55:35.026Z,199.52
2023-05-21T01:56:34.851Z,192.59
2023-05-21T01:57:34.900Z,186.69
2023-05-21T01:58:34.911Z,180.68
2023-05-21T01:59:34.956Z,179.34
2023-05-21T02:00:35.092Z,178.09
2023-05-21T02:01:35.073Z,176.89
2023-05-21T02:02:35.588Z,175.43
2023-05-21T02:03:36.224Z,174.15
2023-05-21T02:04:35.193Z,172.74
2023-05-21T02:05:35.427Z,174.37
2023-05-21T02:06:35.177Z,184.19
2023-05-21T02:07:35.229Z,210.15
2023-05-21T02:08:35.251Z,232.33
2023-05-21T02:09:35.279Z,247.18
2023-05-21T02:10:35.364Z,252.82
2023-05-21T02:11:35.352Z,252.40
2023-05-21T02:12:35.373Z,252.77
2023-05-21T02:13:35.390Z,248.36
2023-05-21T02:14:35.422Z,247.87
2023-05-21T02:15:35.743Z,245.24
2023-05-21T02:16:35.654Z,241.40
2023-05-21T02:17:35.620Z,233.09
2023-05-21T02:18:38.594Z,224.29
2023-05-21T02:19:36.709Z,217.40
2023-05-21T02:20:35.604Z,211.12
2023-05-21T02:21:35.641Z,208.26
2023-05-21T02:22:35.617Z,207.31
2023-05-21T02:23:35.688Z,205.58
2023-05-21T02:24:35.591Z,200.09
2023-05-21T02:25:35.721Z,199.22
2023-05-21T02:26:35.568Z,197.88
2023-05-21T02:27:35.607Z,197.63
2023-05-21T02:28:35.581Z,197.35
2023-05-21T02:29:35.636Z,194.85
2023-05-21T02:30:36.660Z,193.97
2023-05-21T02:31:35.581Z,194.61
2023-05-21T02:32:35.588Z,192.73
2023-05-21T02:33:35.544Z,193.05
2023-05-21T02:34:35.527Z,193.75
2023-05-21T02:35:35.637Z,194.20
2023-05-21T02:36:35.610Z,194.26
2023-05-21T02:37:35.548Z,194.11
2023-05-21T02:38:35.503Z,193.48
2023-05-21T02:39:35.532Z,193.06
2023-05-21T02:40:35.665Z,193.95
2023-05-21T02:41:35.539Z,199.39
2023-05-21T02:42:35.638Z,206.12
2023-05-21T02:43:35.661Z,210.29
2023-05-21T02:44:36.649Z,210.20
2023-05-21T02:45:35.891Z,210.18
2023-05-21T02:46:35.613Z,210.53
2023-05-21T02:47:35.646Z,209.28
2023-05-21T02:48:35.625Z,206.99
2023-05-21T02:49:35.592Z,206.97
2023-05-21T02:50:35.639Z,207.28
2023-05-21T02:51:35.632Z,205.11
2023-05-21T02:52:35.572Z,199.95
2023-05-21T02:53:35.611Z,193.90
2023-05-21T02:54:36.578Z,190.89
2023-05-21T02:55:36.047Z,182.54
2023-05-21T02:56:35.777Z,178.65
2023-05-21T02:57:35.833Z,177.01
2023-05-21T02:58:35.837Z,176.49
2023-05-21T02:59:35.896Z,173.96
2023-05-21T03:00:35.911Z,175.47
2023-05-21T03:01:35.931Z,174.85
2023-05-21T03:02:35.982Z,177.01
2023-05-21T03:03:36.156Z,172.58
2023-05-21T03:04:35.978Z,172.18
2023-05-21T03:05:36.239Z,171.50
2023-05-21T03:06:35.941Z,170.33
2023-05-21T03:07:35.991Z,169.88
2023-05-21T03:08:35.979Z,168.86
2023-05-21T03:09:35.980Z,169.74
2023-05-21T03:10:35.968Z,166.84
2023-05-21T03:11:35.991Z,164.81
2023-05-21T03:12:36.022Z,165.65
2023-05-21T03:13:35.995Z,164.60
2023-05-21T03:14:36.000Z,166.77
2023-05-21T03:15:36.260Z,168.48
2023-05-21T03:16:36.079Z,167.91
2023-05-21T03:17:36.089Z,167.93
2023-05-21T03:18:36.148Z,173.87
2023-05-21T03:19:36.093Z,178.42
2023-05-21T03:20:36.069Z,184.07
2023-05-21T03:21:36.118Z,190.98
2023-05-21T03:22:36.121Z,196.97
2023-05-21T03:23:36.089Z,201.95
2023-05-21T03:24:36.146Z,207.32
2023-05-21T03:25:36.782Z,206.86
2023-05-21T03:26:36.189Z,195.53
2023-05-21T03:27:36.168Z,187.49
2023-05-21T03:28:36.174Z,181.58
2023-05-21T03:29:36.238Z,179.66
2023-05-21T03:30:36.217Z,179.82
2023-05-21T03:31:36.284Z,181.06
2023-05-21T03:32:36.231Z,178.83
2023-05-21T03:33:36.273Z,181.53
2023-05-21T03:34:36.211Z,182.67
2023-05-21T03:35:36.507Z,182.80
2023-05-21T03:36:36.212Z,182.11
2023-05-21T03:37:36.235Z,182.58
2023-05-21T03:38:37.219Z,184.50
2023-05-21T03:39:36.247Z,184.66
2023-05-21T03:40:36.205Z,182.23
2023-05-21T03:41:36.231Z,181.44
2023-05-21T03:42:36.264Z,179.89
2023-05-21T03:43:36.328Z,180.56
2023-05-21T03:44:36.231Z,180.97
2023-05-21T03:45:36.689Z,181.87
2023-05-21T03:46:36.336Z,182.47
2023-05-21T03:47:36.312Z,181.43
2023-05-21T03:48:36.208Z,181.52
2023-05-21T03:49:36.251Z,180.24
2023-05-21T03:50:36.253Z,182.60
2023-05-21T03:51:36.229Z,184.35
2023-05-21T03:52:36.278Z,189.11
2023-05-21T03:53:36.248Z,189.64
2023-05-21T03:54:36.260Z,191.37
2023-05-21T03:55:36.875Z,194.43
2023-05-21T03:56:36.231Z,195.81
2023-05-21T03:57:36.300Z,196.43
2023-05-21T03:58:36.285Z,193.66
2023-05-21T03:59:36.348Z,190.47
2023-05-21T04:00:36.289Z,188.61
2023-05-21T04:01:36.352Z,186.88
2023-05-21T04:02:36.396Z,183.45
2023-05-21T04:03:37.844Z,183.52
2023-05-21T04:04:36.300Z,184.67
2023-05-21T04:05:36.815Z,185.40
2023-05-21T04:06:36.280Z,184.65
2023-05-21T04:07:36.225Z,182.40
2023-05-21T04:08:36.246Z,178.01
2023-05-21T04:09:36.918Z,175.42
2023-05-21T04:10:37.125Z,173.15
2023-05-21T04:11:36.192Z,172.79
2023-05-21T04:12:36.252Z,174.25
2023-05-21T04:13:36.217Z,180.87
2023-05-21T04:14:36.182Z,192.50
2023-05-21T04:15:36.579Z,202.08
2023-05-21T04:16:36.263Z,213.07
2023-05-21T04:17:36.228Z,225.05
2023-05-21T04:18:36.197Z,233.84
2023-05-21T04:19:36.192Z,239.99
2023-05-21T04:20:36.157Z,243.99
2023-05-21T04:21:36.116Z,246.67
2023-05-21T04:24:06.449Z,25.00
2023-05-21T04:25:12.289Z,25.00
2023-05-21T04:25:56.220Z,25.00
2023-05-21T04:27:06.265Z,25.00
2023-05-21T04:29:31.007Z,25.00
2023-05-21T04:30:26.029Z,25.00
2023-05-21T04:32:35.697Z,25.00
2023-05-21T04:33:35.407Z,25.00
2023-05-21T04:34:35.379Z,25.00
2023-05-21T04:35:35.568Z,25.00
2023-05-21T04:36:36.121Z,25.00
2023-05-21T04:37:35.417Z,24.07
2023-05-21T04:38:35.349Z,25.00
2023-05-21T04:39:35.411Z,28.14
2023-05-21T04:40:36.635Z,34.25
2023-05-21T04:41:35.334Z,33.61
2023-05-21T04:42:35.344Z,25.00
2023-05-21T04:43:35.358Z,26.91
2023-05-21T04:44:35.368Z,30.48
2023-05-21T04:45:35.688Z,27.80
2023-05-21T04:46:35.437Z,27.41
2023-05-21T04:48:55.457Z,25.00
2023-05-21T04:49:55.304Z,25.00
2023-05-21T04:50:55.288Z,25.00
2023-05-21T04:51:55.270Z,25.00
2023-05-21T04:52:55.240Z,25.00
2023-05-21T04:53:55.267Z,26.94
2023-05-21T04:54:55.260Z,35.51
2023-05-21T04:55:55.509Z,25.00
2023-05-21T04:56:55.279Z,29.45
2023-05-21T04:57:55.269Z,7.61
2023-05-21T04:58:55.219Z,0.00
2023-05-21T04:59:55.266Z,0.00
2023-05-21T05:00:55.223Z,0.00
2023-05-21T05:01:55.177Z,0.00
2023-05-21T05:02:55.275Z,23.12
2023-05-21T05:03:55.223Z,28.70
2023-05-21T05:04:55.201Z,29.52
2023-05-21T05:05:55.166Z,28.55
2023-05-21T05:06:55.171Z,35.59
2023-05-21T05:07:55.154Z,42.06
2023-05-21T05:08:55.156Z,53.36
2023-05-21T05:09:55.137Z,66.26
2023-05-21T05:10:55.138Z,75.17
2023-05-21T05:11:55.106Z,93.57
2023-05-21T05:12:55.098Z,120.22
2023-05-21T05:13:55.123Z,114.02
2023-05-21T05:14:55.121Z,126.47
2023-05-21T05:15:55.508Z,145.59
2023-05-21T05:16:55.140Z,156.34
2023-05-21T05:17:55.114Z,160.18
2023-05-21T05:18:55.187Z,154.00
2023-05-21T05:21:14.735Z,25.00
2023-05-21T05:22:14.660Z,25.00
2023-05-21T05:23:14.568Z,25.00
2023-05-21T05:24:14.607Z,25.00
2023-05-21T05:25:14.626Z,25.00
2023-05-21T05:26:14.672Z,27.00
2023-05-21T05:27:14.668Z,39.80
2023-05-21T05:28:14.577Z,52.61
2023-05-21T05:29:14.567Z,54.96
2023-05-21T05:30:14.496Z,51.95
2023-05-21T05:31:14.567Z,51.94
2023-05-21T05:32:14.603Z,45.46
2023-05-21T05:33:14.533Z,35.81
2023-05-21T05:34:14.501Z,38.21
2023-05-21T05:35:14.514Z,44.89
2023-05-21T05:36:14.542Z,48.94
2023-05-21T05:37:14.487Z,32.00
2023-05-21T05:38:14.462Z,31.75
2023-05-21T05:39:14.475Z,26.67
2023-05-21T05:40:14.509Z,25.63
2023-05-21T05:41:14.467Z,25.00
2023-05-21T05:42:14.423Z,27.42
2023-05-21T05:43:14.537Z,24.17
2023-05-21T05:44:14.404Z,23.86
2023-05-21T05:45:14.417Z,24.42
2023-05-21T05:46:14.833Z,26.23
2023-05-21T05:47:14.402Z,33.48
2023-05-21T05:48:14.406Z,29.66
2023-05-21T05:49:14.475Z,9.71
2023-05-21T05:50:14.364Z,0.00
2023-05-21T05:51:29.350Z,20.75
2023-05-21T05:52:14.383Z,20.97
2023-05-21T05:53:14.373Z,23.76
2023-05-21T05:54:14.363Z,22.51
2023-05-21T05:55:14.379Z,0.00
2023-05-21T05:56:14.802Z,0.00
2023-05-21T05:57:14.325Z,0.00
2023-05-21T05:58:14.358Z,0.00
2023-05-21T05:59:14.326Z,2.45
2023-05-21T06:00:14.304Z,7.88
2023-05-21T06:01:14.328Z,20.01
2023-05-21T06:02:14.365Z,27.00
2023-05-21T06:03:14.527Z,27.49
2023-05-21T06:04:14.256Z,35.13
2023-05-21T06:05:14.307Z,36.15
2023-05-21T06:06:14.410Z,20.54
2023-05-21T06:07:14.248Z,25.79
2023-05-21T06:08:14.262Z,35.18
2023-05-21T06:09:14.253Z,52.05
2023-05-21T06:10:14.279Z,35.39
2023-05-21T06:11:14.347Z,25.00
2023-05-21T06:12:15.080Z,25.00
2023-05-21T06:13:14.215Z,29.42
2023-05-21T06:14:14.188Z,45.12
2023-05-21T06:15:14.186Z,51.20
2023-05-21T06:16:14.246Z,40.08
2023-05-21T06:17:14.173Z,45.16
2023-05-21T06:18:14.159Z,64.57
2023-05-21T06:19:14.198Z,87.70
2023-05-21T06:20:14.160Z,90.46
2023-05-21T06:21:14.167Z,86.34
2023-05-21T06:22:14.229Z,70.30
2023-05-21T06:23:14.188Z,51.00
2023-05-21T06:24:14.163Z,40.57
2023-05-21T06:25:14.088Z,42.96
2023-05-21T06:26:14.138Z,5.54
2023-05-21T06:27:14.200Z,11.41
2023-05-21T06:28:14.140Z,34.04
2023-05-21T06:29:15.535Z,26.29
2023-05-21T06:30:14.154Z,27.39
2023-05-21T06:31:14.097Z,25.00
2023-05-21T06:32:14.078Z,19.81
2023-05-21T06:33:14.157Z,0.00
2023-05-21T06:34:14.061Z,8.27
2023-05-21T06:35:14.088Z,35.38
2023-05-21T06:36:14.074Z,24.90
2023-05-21T06:37:14.047Z,36.93
2023-05-21T06:38:14.112Z,25.26
2023-05-21T06:39:14.045Z,32.31
2023-05-21T06:40:14.026Z,37.69
2023-05-21T06:41:13.997Z,37.23
2023-05-21T06:42:14.050Z,38.18
2023-05-21T06:43:14.032Z,41.51
2023-05-21T06:44:14.010Z,38.25
2023-05-21T06:45:13.991Z,52.33
2023-05-21T06:46:14.379Z,31.96
2023-05-21T06:47:14.020Z,46.27
2023-05-21T06:48:13.953Z,60.18
2023-05-21T06:49:14.456Z,74.91
2023-05-21T06:50:13.955Z,56.11
2023-05-21T06:51:13.983Z,57.17
2023-05-21T06:52:13.951Z,75.60
2023-05-21T06:53:13.949Z,61.07
2023-05-21T06:54:13.957Z,41.75
2023-05-21T06:55:13.954Z,28.36
2023-05-21T06:56:13.959Z,25.00
2023-05-21T06:57:13.900Z,27.25
2023-05-21T06:58:13.922Z,26.26
2023-05-21T06:59:13.931Z,27.89
2023-05-21T07:00:13.888Z,27.27
2023-05-21T07:01:14.415Z,25.01
2023-05-21T07:02:13.872Z,42.11
2023-05-21T07:03:14.018Z,46.89
2023-05-21T07:04:13.849Z,25.13
2023-05-21T07:05:13.932Z,29.68
2023-05-21T07:06:13.934Z,35.05
2023-05-21T07:07:13.976Z,24.86
2023-05-21T07:08:14.053Z,34.72
2023-05-21T07:09:14.138Z,41.33
2023-05-21T07:10:14.175Z,15.00
2023-05-21T07:11:14.171Z,28.52
2023-05-21T07:12:14.233Z,60.88
2023-05-21T07:13:14.284Z,70.39
2023-05-21T07:14:14.345Z,82.87
2023-05-21T07:15:14.372Z,66.39
2023-05-21T07:16:14.821Z,54.00
2023-05-21T07:17:14.416Z,40.04
2023-05-21T07:18:14.490Z,25.00
2023-05-21T07:19:14.555Z,52.63
2023-05-21T07:20:14.486Z,61.45
2023-05-21T07:21:14.894Z,71.63
2023-05-21T07:22:14.501Z,82.90
2023-05-21T07:23:14.528Z,107.59
2023-05-21T07:24:14.505Z,114.72
2023-05-21T07:25:14.497Z,103.01
2023-05-21T07:26:14.523Z,85.79
2023-05-21T07:27:25.318Z,81.80
2023-05-21T07:28:15.519Z,82.47
2023-05-21T07:29:14.492Z,88.49
2023-05-21T07:30:14.533Z,85.98
2023-05-21T07:31:14.557Z,96.75
2023-05-21T07:32:14.516Z,88.19
2023-05-21T07:33:14.441Z,110.22
2023-05-21T07:34:14.470Z,109.39
2023-05-21T07:35:14.471Z,83.95
2023-05-21T07:36:14.498Z,71.87
2023-05-21T07:37:14.581Z,73.05
2023-05-21T07:38:14.408Z,62.17
2023-05-21T07:39:14.471Z,47.58
2023-05-21T07:40:14.482Z,77.98
2023-05-21T07:41:15.572Z,75.50
2023-05-21T07:42:14.793Z,55.73
2023-05-21T07:43:14.760Z,68.08
2023-05-21T07:44:14.834Z,68.46
2023-05-21T07:45:14.806Z,54.90
2023-05-21T07:46:14.882Z,55.68
2023-05-21T07:47:14.849Z,70.78
2023-05-21T07:48:14.860Z,86.41
2023-05-21T07:49:14.905Z,0.00
2023-05-21T07:50:14.920Z,0.00
2023-05-21T07:51:15.017Z,0.00
2023-05-21T07:52:14.920Z,15.66
2023-05-21T07:53:14.920Z,51.67
2023-05-21T07:54:15.005Z,63.93
2023-05-21T07:55:14.976Z,32.06
2023-05-21T07:56:14.995Z,23.22
2023-05-21T07:57:15.036Z,42.64
2023-05-21T07:58:14.956Z,54.12
2023-05-21T07:59:15.050Z,89.18
2023-05-21T08:00:15.225Z,43.03
2023-05-21T08:01:15.237Z,19.61
2023-05-21T08:02:15.243Z,23.55
2023-05-21T08:03:15.578Z,0.00
2023-05-21T08:04:15.462Z,0.00
2023-05-21T08:05:15.513Z,0.00
2023-05-21T08:06:15.486Z,10.67
2023-05-21T08:07:15.585Z,48.14
2023-05-21T08:08:15.577Z,29.29
2023-05-21T08:09:15.657Z,57.81
2023-05-21T08:10:17.747Z,62.16
2023-05-21T08:11:15.719Z,10.40
2023-05-21T08:12:15.689Z,14.75
2023-05-21T08:13:15.688Z,27.75
2023-05-21T08:14:15.683Z,67.20
2023-05-21T08:15:15.767Z,89.33
2023-05-21T08:16:15.703Z,50.14
2023-05-21T08:17:15.688Z,99.63
2023-05-21T08:18:15.653Z,132.99
2023-05-21T08:19:15.692Z,145.98
2023-05-21T08:20:15.643Z,123.83
2023-05-21T08:21:15.894Z,145.62
2023-05-21T08:22:15.638Z,111.00
2023-05-21T08:23:15.611Z,62.33
2023-05-21T08:24:15.621Z,66.27
2023-05-21T08:25:15.607Z,45.58
2023-05-21T08:26:15.613Z,71.08
2023-05-21T08:27:15.635Z,78.00
2023-05-21T08:28:15.582Z,84.22
2023-05-21T08:29:15.576Z,72.95
2023-05-21T08:30:15.624Z,63.37
2023-05-21T08:31:15.607Z,103.01
2023-05-21T08:32:15.657Z,122.54
2023-05-21T08:33:15.600Z,109.61
2023-05-21T08:34:15.561Z,129.33
2023-05-21T08:35:15.518Z,75.77
2023-05-21T08:36:15.878Z,91.21
2023-05-21T08:37:15.537Z,105.00
2023-05-21T08:38:15.512Z,138.65
2023-05-21T08:39:15.501Z,144.16
2023-05-21T08:40:15.550Z,128.63
2023-05-21T08:41:15.502Z,137.16
2023-05-21T08:42:22.558Z,148.45
2023-05-21T08:43:16.510Z,87.71
2023-05-21T08:44:15.476Z,87.86
2023-05-21T08:45:15.464Z,107.67
2023-05-21T08:46:15.516Z,74.30
2023-05-21T08:47:15.464Z,44.61
2023-05-21T08:48:15.502Z,30.61
2023-05-21T08:49:15.419Z,52.73
2023-05-21T08:50:15.456Z,58.04
2023-05-21T08:51:15.519Z,54.21
2023-05-21T08:52:15.441Z,26.90
2023-05-21T08:53:24.073Z,37.86
2023-05-21T08:54:16.443Z,17.24
2023-05-21T08:55:15.441Z,0.00
2023-05-21T08:56:15.402Z,0.00
2023-05-21T08:57:15.406Z,0.00
2023-05-21T08:58:15.362Z,0.00
2023-05-21T08:59:15.402Z,11.00
2023-05-21T09:00:15.368Z,30.55
2023-05-21T09:01:15.432Z,14.18
2023-05-21T09:02:15.423Z,45.82
2023-05-21T09:03:15.374Z,73.96
2023-05-21T09:04:20.872Z,100.29
2023-05-21T09:05:16.393Z,68.36
2023-05-21T09:06:15.399Z,61.76
2023-05-21T09:07:15.435Z,0.00
2023-05-21T09:08:15.474Z,0.00
2023-05-21T09:09:15.521Z,0.00
2023-05-21T09:10:15.606Z,0.00
2023-05-21T09:11:15.606Z,0.00
2023-05-21T09:12:15.620Z,0.00
2023-05-21T09:13:15.637Z,0.00
2023-05-21T09:14:15.683Z,0.00
2023-05-21T09:15:15.686Z,0.00
2023-05-21T09:16:15.781Z,0.00
2023-05-21T09:17:15.777Z,0.00
2023-05-21T09:18:15.801Z,0.00
2023-05-21T09:19:15.998Z,0.00
2023-05-21T09:20:15.823Z,0.00
2023-05-21T09:21:15.879Z,0.00
2023-05-21T09:22:15.858Z,0.00
2023-05-21T09:23:15.896Z,0.00
2023-05-21T09:24:15.881Z,0.00
2023-05-21T09:25:15.914Z,0.00
2023-05-21T09:26:16.393Z,0.00
2023-05-21T09:27:15.949Z,0.00
2023-05-21T09:28:15.984Z,0.00
2023-05-21T09:29:15.996Z,0.00
2023-05-21T09:30:15.976Z,0.00
2023-05-21T09:31:16.951Z,0.00
2023-05-21T09:32:16.040Z,0.00
2023-05-21T09:33:16.021Z,0.00
2023-05-21T09:34:16.059Z,0.00
2023-05-21T09:35:16.082Z,0.00
2023-05-21T09:36:16.383Z,26.79
2023-05-21T09:37:26.607Z,12.24
2023-05-21T09:38:17.118Z,12.79
2023-05-21T09:39:16.138Z,20.47
2023-05-21T09:40:16.125Z,16.08
2023-05-21T09:41:19.493Z,0.00
2023-05-21T09:42:17.081Z,12.34
2023-05-21T09:43:16.090Z,13.83
2023-05-21T09:44:16.062Z,15.59
2023-05-21T09:45:16.124Z,24.41
2023-05-21T09:46:16.131Z,28.60
2023-05-21T09:47:16.038Z,41.52
2023-05-21T09:48:16.048Z,0.00
2023-05-21T09:49:16.036Z,0.00
2023-05-21T09:50:16.003Z,0.00
2023-05-21T09:51:16.329Z,21.42
2023-05-21T09:52:16.022Z,12.84
2023-05-21T09:53:15.984Z,44.44
2023-05-21T09:54:16.006Z,34.41
2023-05-21T09:55:16.017Z,24.89
2023-05-21T09:56:16.073Z,37.81
2023-05-21T09:57:16.104Z,44.18
2023-05-21T09:58:16.128Z,50.09
2023-05-21T09:59:16.178Z,46.42
2023-05-21T10:00:16.285Z,62.99
2023-05-21T10:01:16.313Z,69.64
2023-05-21T10:02:16.490Z,71.47
2023-05-21T10:03:16.491Z,54.22
2023-05-21T10:04:16.520Z,20.87
2023-05-21T10:05:16.473Z,45.64
2023-05-21T10:06:16.475Z,45.12
2023-05-21T10:07:16.625Z,60.89
2023-05-21T10:08:16.570Z,69.31
2023-05-21T10:09:16.606Z,88.19
2023-05-21T10:10:16.679Z,75.44
2023-05-21T10:11:16.757Z,88.11
2023-05-21T10:12:16.753Z,126.77
2023-05-21T10:13:16.846Z,136.46
2023-05-21T10:14:16.868Z,121.97
2023-05-21T10:15:16.974Z,79.44
2023-05-21T10:16:17.043Z,86.96
2023-05-21T10:17:17.039Z,114.33
2023-05-21T10:18:17.239Z,136.05
2023-05-21T10:19:17.155Z,141.26
2023-05-21T10:20:17.228Z,165.84
2023-05-21T10:21:17.223Z,170.78
2023-05-21T10:22:17.255Z,169.40
2023-05-21T10:23:17.260Z,179.10
2023-05-21T10:24:17.331Z,127.08
2023-05-21T10:25:17.296Z,97.02
2023-05-21T10:26:17.392Z,126.34
2023-05-21T10:27:17.423Z,25.31
2023-05-21T10:28:17.425Z,58.41
2023-05-21T10:29:19.667Z,79.00
2023-05-21T10:30:17.536Z,25.84
2023-05-21T10:31:17.586Z,32.66
2023-05-21T10:32:17.806Z,40.26
2023-05-21T10:33:17.719Z,68.11
2023-05-21T10:34:17.758Z,93.31
2023-05-21T10:35:17.823Z,116.91
2023-05-21T10:36:17.806Z,149.48
2023-05-21T10:37:17.798Z,145.10
2023-05-21T10:38:17.754Z,131.11
2023-05-21T10:39:17.806Z,148.85
2023-05-21T10:40:17.807Z,101.47
2023-05-21T10:41:17.918Z,55.73
2023-05-21T10:42:17.826Z,18.63
2023-05-21T10:43:17.859Z,23.82
2023-05-21T10:44:17.868Z,48.54
2023-05-21T10:45:17.864Z,65.77
2023-05-21T10:46:17.950Z,67.34
2023-05-21T10:47:17.964Z,78.35
2023-05-21T10:48:18.157Z,101.41
2023-05-21T10:49:18.065Z,68.31
2023-05-21T10:50:18.088Z,27.60
2023-05-21T10:51:18.133Z,27.66
2023-05-21T10:52:18.195Z,35.04
2023-05-21T10:53:18.230Z,65.33
2023-05-21T10:54:18.311Z,91.35
2023-05-21T10:55:18.361Z,109.77
2023-05-21T10:56:18.484Z,120.37
2023-05-21T10:57:18.466Z,92.53
2023-05-21T10:58:18.705Z,60.81
2023-05-21T10:59:18.600Z,21.91
2023-05-21T11:00:18.664Z,26.29
2023-05-21T11:01:18.598Z,12.46
2023-05-21T11:02:18.566Z,25.00
2023-05-21T11:03:18.657Z,35.20
2023-05-21T11:04:18.626Z,36.03
2023-05-21T11:05:18.671Z,43.45
2023-05-21T11:06:18.703Z,25.51
2023-05-21T11:07:18.746Z,39.84
2023-05-21T11:08:18.718Z,36.57
2023-05-21T11:09:18.722Z,83.36
2023-05-21T11:10:18.811Z,103.08
2023-05-21T11:11:18.916Z,73.41
2023-05-21T11:12:33.986Z,71.05
2023-05-21T11:14:54.379Z,25.00
2023-05-21T11:15:54.410Z,25.00
2023-05-21T11:16:54.705Z,25.00
2023-05-21T11:18:13.661Z,25.00
2023-05-21T11:19:11.430Z,25.00
2023-05-21T11:19:57.906Z,25.00
2023-05-21T11:20:57.941Z,25.00
2023-05-21T11:21:57.914Z,25.00
2023-05-21T11:22:57.884Z,25.00
2023-05-21T11:23:57.880Z,25.00
2023-05-21T11:24:57.897Z,29.78
2023-05-21T11:25:58.112Z,24.18
2023-05-21T11:26:57.848Z,14.30
2023-05-21T11:27:57.871Z,36.96
2023-05-21T11:28:57.828Z,30.85
2023-05-21T11:29:57.803Z,36.79
2023-05-21T11:30:57.890Z,30.39
2023-05-21T11:31:57.842Z,46.87
2023-05-21T11:32:58.032Z,48.58
2023-05-21T11:33:57.801Z,40.90
2023-05-21T11:34:57.806Z,38.73
2023-05-21T11:35:57.804Z,28.82
2023-05-21T11:36:57.799Z,34.61
2023-05-21T11:37:57.810Z,51.00
2023-05-21T11:38:57.781Z,57.99
2023-05-21T11:39:57.773Z,82.87
2023-05-21T11:40:58.188Z,99.50
2023-05-21T11:41:57.772Z,140.19
2023-05-21T11:42:57.769Z,156.20
2023-05-21T11:43:57.751Z,84.20
2023-05-21T11:44:57.785Z,57.54
2023-05-21T11:45:57.765Z,64.47
2023-05-21T11:46:57.759Z,76.36
2023-05-21T11:47:57.891Z,51.74
2023-05-21T11:48:57.904Z,60.08
2023-05-21T11:49:57.898Z,44.28
2023-05-21T11:50:58.155Z,59.81
2023-05-21T11:51:58.010Z,32.47
2023-05-21T11:52:58.063Z,20.85
2023-05-21T11:53:58.079Z,57.72
2023-05-21T11:54:58.037Z,48.16
2023-05-21T11:55:58.134Z,44.18
2023-05-21T11:56:58.156Z,103.01
2023-05-21T11:57:58.208Z,130.75
2023-05-21T11:58:58.248Z,109.72
2023-05-21T11:59:58.261Z,113.17
2023-05-21T12:00:58.651Z,96.00
2023-05-21T12:01:58.357Z,130.82
2023-05-21T12:02:58.502Z,188.33
2023-05-21T12:03:58.455Z,186.04
2023-05-21T12:04:58.472Z,198.53
2023-05-21T12:05:58.685Z,226.59
2023-05-21T12:06:58.500Z,239.27
2023-05-21T12:07:58.580Z,213.54
2023-05-21T12:08:58.674Z,183.36
2023-05-21T12:09:58.673Z,199.53
2023-05-21T12:10:59.202Z,238.36
2023-05-21T12:11:58.748Z,229.92
2023-05-21T12:12:58.809Z,164.02
2023-05-21T12:13:58.854Z,177.93
2023-05-21T12:14:58.831Z,173.78
2023-05-21T12:15:58.941Z,118.93
2023-05-21T12:16:58.927Z,83.81
2023-05-21T12:17:58.944Z,83.31
2023-05-21T12:18:59.001Z,90.51
2023-05-21T12:19:58.992Z,124.04
2023-05-21T12:20:59.052Z,140.13
2023-05-21T12:21:59.068Z,169.23
2023-05-21T12:22:59.252Z,156.62
2023-05-21T12:23:59.096Z,149.35
2023-05-21T12:24:59.134Z,127.47
2023-05-21T12:25:59.183Z,139.49
2023-05-21T12:26:59.188Z,144.88
2023-05-21T12:27:59.222Z,141.16
2023-05-21T12:28:59.230Z,128.32
2023-05-21T12:29:59.225Z,123.98
2023-05-21T12:30:59.684Z,119.42
2023-05-21T12:31:59.363Z,146.73
2023-05-21T12:32:59.422Z,171.30
2023-05-21T12:33:59.391Z,125.12
2023-05-21T12:34:59.412Z,151.26
2023-05-21T12:35:59.486Z,151.57
2023-05-21T12:36:59.505Z,122.93
2023-05-21T12:37:59.510Z,102.99
2023-05-21T12:38:59.554Z,114.24
2023-05-21T12:39:59.602Z,122.87
2023-05-21T12:40:59.679Z,132.76
2023-05-21T12:41:59.646Z,158.20
2023-05-21T12:42:59.664Z,155.31
2023-05-21T12:43:59.662Z,164.61
2023-05-21T12:44:59.699Z,160.28
2023-05-21T12:45:59.812Z,154.95
2023-05-21T12:46:59.761Z,153.10
2023-05-21T12:47:59.781Z,163.77
2023-05-21T12:48:59.769Z,202.89
2023-05-21T12:49:59.751Z,229.60
2023-05-21T12:50:59.790Z,252.03